Terminal Aerodrome Forecast
Issued by NWS Cleveland, OH

Home | Current Version | Previous Version | Text Only | Print | Product List | Glossary Off
Versions: 1 2 3 4 5 6 7 8 9 10 11 12 13 14 15 16 17 18 19 20

000
FTUS41 KCLE 182031 AAA
TAFERI
TAF AMD
KERI 182031Z 1821/1918 VRB04KT P6SM OVC030
     FM182200 VRB04KT P6SM SCT028
     FM190200 05008KT P6SM VCSH OVC025
     FM190400 04010KT 4SM -SN OVC012
     FM190900 36012G22KT 4SM -SN OVC007
     FM191300 34017G25KT 2SM -SHSN OVC010=

USA.gov is the U.S. government's official web portal to all federal, state and local government web resources and services.